Time;durP1;ratioP1;P1;durP2;ratioP2;P2;SDS_P1;SDS_P2;PMS_P1;PMS_P2;Temp;Humidity;BMP_temperature;BMP_pressure;BME280_temperature;BME280_humidity;BME280_pressure;Samples;Min_cycle;Max_cycle;Signal;HPM_P1;HPM_P2
2023/08/16 00:02:15;;;;;;;18.05;10.10;;;16.00;99.90;;;;;;5092970;28;20119;-76
2023/08/16 00:04:42;;;;;;;17.65;9.25;;;16.00;99.90;;;;;;5091919;28;20050;-76
2023/08/16 00:07:08;;;;;;;13.65;8.77;;;15.90;99.90;;;;;;5093275;28;20047;-76
2023/08/16 00:09:33;;;;;;;16.27;8.00;;;15.90;99.90;;;;;;5092939;28;20036;-76
2023/08/16 00:11:59;;;;;;;14.05;8.35;;;15.80;99.90;;;;;;5093803;28;20494;-76
2023/08/16 00:14:25;;;;;;;16.90;7.93;;;15.90;99.90;;;;;;5096855;28;20062;-76
2023/08/16 00:16:51;;;;;;;20.23;8.60;;;15.80;99.90;;;;;;5103664;28;20450;-76
2023/08/16 00:19:17;;;;;;;15.10;8.40;;;15.80;99.90;;;;;;5117766;28;20035;-76
2023/08/16 00:21:43;;;;;;;13.93;7.93;;;15.80;99.90;;;;;;5101242;28;20043;-76
2023/08/16 00:24:09;;;;;;;21.50;8.40;;;15.70;99.90;;;;;;5097357;28;20165;-76
2023/08/16 00:26:35;;;;;;;17.13;7.82;;;15.70;99.90;;;;;;5096539;28;20072;-76
2023/08/16 00:29:01;;;;;;;24.23;7.75;;;15.70;99.90;;;;;;5096462;28;20044;-76
2023/08/16 00:31:27;;;;;;;13.85;7.72;;;15.70;99.90;;;;;;5096749;28;20040;-76
2023/08/16 00:33:53;;;;;;;14.23;7.60;;;15.60;99.90;;;;;;5096480;28;20397;-76
2023/08/16 00:36:19;;;;;;;15.23;8.27;;;15.60;99.90;;;;;;5096286;28;20506;-76
2023/08/16 00:38:44;;;;;;;16.02;8.30;;;15.60;99.90;;;;;;5096356;28;20079;-76
2023/08/16 00:41:13;;;;;;;16.08;7.85;;;15.60;99.90;;;;;;5094713;28;20134;-76
2023/08/16 00:43:39;;;;;;;13.50;7.75;;;15.60;99.90;;;;;;5116369;28;20057;-76
2023/08/16 00:46:09;;;;;;;19.75;9.10;;;15.60;99.90;;;;;;5110327;28;20107;-76
2023/08/16 00:48:38;;;;;;;12.80;7.30;;;15.50;99.90;;;;;;5078080;28;20047;-76
2023/08/16 00:51:05;;;;;;;17.58;8.32;;;15.50;99.90;;;;;;5095630;28;20059;-76
2023/08/16 00:53:31;;;;;;;17.80;8.90;;;15.50;99.90;;;;;;5095280;28;20044;-76
2023/08/16 00:56:01;;;;;;;18.55;8.73;;;15.40;99.90;;;;;;5094203;28;20040;-77
2023/08/16 00:58:27;;;;;;;15.98;7.72;;;15.40;99.90;;;;;;5077477;28;20036;-77
2023/08/16 01:00:53;;;;;;;16.13;7.65;;;15.40;99.90;;;;;;5093443;28;20048;-77
2023/08/16 01:03:19;;;;;;;11.27;6.88;;;15.40;99.90;;;;;;5094088;28;20059;-77
2023/08/16 01:05:45;;;;;;;14.77;6.90;;;15.40;99.90;;;;;;5095422;28;20048;-77
2023/08/16 01:08:10;;;;;;;12.25;6.43;;;15.40;99.90;;;;;;5093997;28;20512;-77
2023/08/16 01:10:54;;;;;;;16.17;7.30;;;15.40;99.90;;;;;;5094029;28;20059;-77
2023/08/16 01:13:27;;;;;;;10.57;6.57;;;15.40;99.90;;;;;;5077465;28;20506;-77
2023/08/16 01:15:55;;;;;;;15.95;7.00;;;15.40;99.90;;;;;;5094138;28;20096;-78
2023/08/16 01:18:21;;;;;;;;;;;15.30;99.90;;;;;;5095309;28;20041;-77
2023/08/16 01:20:48;;;;;;;14.07;6.68;;;15.30;99.90;;;;;;5094688;28;19920;-77
2023/08/16 01:23:53;;;;;;;10.75;6.13;;;15.30;99.90;;;;;;5094583;28;20043;-76
2023/08/16 01:26:36;;;;;;;15.05;7.13;;;15.30;99.90;;;;;;5093261;28;20064;-76
2023/08/16 01:29:05;;;;;;;11.20;6.53;;;15.30;99.90;;;;;;5095053;28;20055;-76
2023/08/16 01:31:34;;;;;;;12.73;6.68;;;15.30;99.90;;;;;;5093790;28;20118;-76
2023/08/16 01:34:00;;;;;;;13.65;6.15;;;15.30;99.90;;;;;;5095230;28;20119;-76
2023/08/16 01:36:27;;;;;;;13.82;6.82;;;15.30;99.90;;;;;;5097316;28;20040;-76
2023/08/16 01:38:54;;;;;;;12.70;7.57;;;15.30;99.90;;;;;;5097115;28;20039;-76
2023/08/16 01:41:21;;;;;;;16.15;7.20;;;15.30;99.90;;;;;;5078290;28;20086;-77
2023/08/16 01:43:48;;;;;;;15.20;6.82;;;15.40;99.90;;;;;;5095938;28;20062;-76
2023/08/16 01:46:15;;;;;;;12.27;7.13;;;15.40;99.90;;;;;;5103630;28;20071;-77
2023/08/16 01:48:43;;;;;;;13.80;7.85;;;15.40;99.90;;;;;;5115327;28;20089;-77
2023/08/16 01:51:09;;;;;;;11.75;6.78;;;15.30;99.90;;;;;;5115408;28;20495;-76
2023/08/16 01:53:37;;;;;;;12.30;6.95;;;15.30;99.90;;;;;;5115132;28;20401;-76
2023/08/16 01:56:03;;;;;;;14.18;7.22;;;15.30;99.90;;;;;;5105566;28;20473;-77
2023/08/16 01:58:28;;;;;;;13.93;7.38;;;15.30;99.90;;;;;;5092548;28;20036;-77
2023/08/16 02:00:54;;;;;;;12.80;7.30;;;15.30;99.90;;;;;;5093637;28;20124;-76
2023/08/16 02:03:19;;;;;;;17.75;7.60;;;15.20;99.90;;;;;;5093913;28;20044;-76
2023/08/16 02:05:45;;;;;;;13.05;7.30;;;15.20;99.90;;;;;;5075742;28;20040;-76
2023/08/16 02:08:12;;;;;;;13.75;6.80;;;15.20;99.90;;;;;;5093899;28;20061;-76
2023/08/16 02:10:40;;;;;;;9.00;6.10;;;15.20;99.90;;;;;;5093875;28;20044;-77
2023/08/16 02:13:06;;;;;;;10.55;6.82;;;15.10;99.90;;;;;;5093813;28;20517;-77
2023/08/16 02:15:32;;;;;;;12.13;6.95;;;15.10;99.90;;;;;;5093322;28;20374;-77
2023/08/16 02:17:57;;;;;;;15.20;8.27;;;15.10;99.90;;;;;;5093720;28;20101;-77
2023/08/16 02:20:23;;;;;;;14.82;8.38;;;15.10;99.90;;;;;;5092174;28;20581;-77
2023/08/16 02:22:49;;;;;;;17.10;7.25;;;15.10;99.90;;;;;;5111529;28;20054;-77
2023/08/16 02:25:14;;;;;;;13.10;7.03;;;15.10;99.90;;;;;;5113511;28;20061;-76
2023/08/16 02:27:40;;;;;;;10.00;6.78;;;15.10;99.90;;;;;;5112392;28;20035;-77
2023/08/16 02:30:07;;;;;;;13.30;7.10;;;15.00;99.90;;;;;;5108036;28;20052;-77
2023/08/16 02:32:33;;;;;;;9.95;7.70;;;15.10;99.90;;;;;;5092219;28;20486;-75
2023/08/16 02:34:59;;;;;;;13.73;7.05;;;15.10;99.90;;;;;;5095302;28;20079;-76
2023/08/16 02:37:26;;;;;;;10.75;7.38;;;15.10;99.90;;;;;;5112201;28;20039;-76
2023/08/16 02:39:52;;;;;;;15.20;7.88;;;15.10;99.90;;;;;;5107689;28;20040;-76
2023/08/16 02:42:17;;;;;;;12.25;7.03;;;15.20;99.90;;;;;;5093426;28;20104;-76
2023/08/16 02:44:43;;;;;;;14.40;7.25;;;15.20;99.90;;;;;;5091944;28;20048;-76
2023/08/16 02:47:09;;;;;;;12.98;8.00;;;15.20;99.90;;;;;;5093247;28;20043;-76
2023/08/16 02:49:34;;;;;;;14.60;8.02;;;15.20;99.90;;;;;;5091702;28;20547;-76
2023/08/16 02:52:00;;;;;;;12.13;8.13;;;15.20;99.90;;;;;;5092227;28;20442;-76
2023/08/16 02:54:26;;;;;;;14.25;8.10;;;15.20;99.90;;;;;;5091994;28;20047;-76
2023/08/16 02:56:51;;;;;;;10.80;7.07;;;15.30;99.90;;;;;;5092191;28;20104;-76
2023/08/16 02:59:17;;;;;;;13.25;8.48;;;15.30;99.90;;;;;;5091969;28;20048;-76
2023/08/16 03:01:43;;;;;;;12.10;7.53;;;15.20;99.90;;;;;;5093503;28;20497;-76
2023/08/16 03:04:09;;;;;;;14.32;8.38;;;15.20;99.90;;;;;;5091966;28;20566;-76
2023/08/16 03:06:35;;;;;;;12.23;7.53;;;15.20;99.90;;;;;;5092824;28;20133;-75
2023/08/16 03:09:01;;;;;;;17.65;8.18;;;15.20;99.90;;;;;;5091967;28;20074;-76
2023/08/16 03:11:26;;;;;;;12.07;7.70;;;15.20;99.90;;;;;;5092786;28;20036;-76
2023/08/16 03:13:52;;;;;;;13.68;7.40;;;15.10;99.90;;;;;;5092798;28;20123;-77
2023/08/16 03:16:18;;;;;;;15.77;8.40;;;15.10;99.90;;;;;;5091505;28;20044;-77
2023/08/16 03:18:43;;;;;;;14.10;8.27;;;15.00;99.90;;;;;;5093138;28;20167;-76
2023/08/16 03:21:09;;;;;;;11.63;7.75;;;15.00;99.90;;;;;;5092757;28;20406;-76
2023/08/16 03:23:34;;;;;;;12.85;7.70;;;15.00;99.90;;;;;;5091584;28;20398;-76
2023/08/16 03:26:00;;;;;;;12.77;7.32;;;14.90;99.90;;;;;;5092874;28;20052;-76
2023/08/16 03:28:26;;;;;;;12.55;7.78;;;14.90;99.90;;;;;;5091168;28;20474;-76
2023/08/16 03:30:54;;;;;;;11.30;8.30;;;14.90;99.90;;;;;;5092298;28;20051;-76
2023/08/16 03:33:20;;;;;;;12.45;7.50;;;14.90;99.90;;;;;;5093028;28;20526;-77
2023/08/16 03:35:46;;;;;;;10.93;6.95;;;14.90;99.90;;;;;;5091341;28;20517;-77
2023/08/16 03:38:11;;;;;;;11.75;7.63;;;14.90;99.90;;;;;;5092779;28;20043;-77
2023/08/16 03:40:37;;;;;;;13.32;7.47;;;14.90;99.90;;;;;;5092559;28;20123;-77
2023/08/16 03:43:04;;;;;;;12.75;7.75;;;14.80;99.90;;;;;;5092613;28;20052;-77
2023/08/16 03:45:30;;;;;;;12.10;8.55;;;14.80;99.90;;;;;;5112075;28;20039;-77
2023/08/16 03:47:57;;;;;;;12.68;7.65;;;14.70;99.90;;;;;;5114083;28;20400;-77
2023/08/16 03:50:22;;;;;;;12.38;7.95;;;14.70;99.90;;;;;;5094834;28;20467;-77
2023/08/16 03:52:48;;;;;;;12.27;7.38;;;14.70;99.90;;;;;;5097869;28;20126;-77
2023/08/16 03:55:17;;;;;;;15.27;8.10;;;14.60;99.90;;;;;;5096270;28;20561;-77
2023/08/16 03:57:42;;;;;;;12.32;8.00;;;14.70;99.90;;;;;;5094742;28;20075;-77
2023/08/16 04:00:11;;;;;;;12.80;8.00;;;14.60;99.90;;;;;;5096964;28;20104;-77
2023/08/16 04:02:40;;;;;;;14.25;8.52;;;14.60;99.90;;;;;;5096684;28;20051;-77
2023/08/16 04:05:11;;;;;;;15.60;8.10;;;14.60;99.90;;;;;;5096359;28;20044;-77
2023/08/16 04:07:38;;;;;;;12.40;7.88;;;14.60;99.90;;;;;;5105877;28;20478;-77
2023/08/16 04:10:04;;;;;;;11.35;8.02;;;14.60;99.90;;;;;;5095926;28;20051;-77
2023/08/16 04:12:30;;;;;;;14.82;8.40;;;14.60;99.90;;;;;;5081898;28;20389;-77
2023/08/16 04:14:56;;;;;;;13.05;7.90;;;14.60;99.90;;;;;;5096542;28;20046;-76
2023/08/16 04:17:21;;;;;;;11.70;7.85;;;14.60;99.90;;;;;;5077753;28;20063;-76
2023/08/16 04:19:47;;;;;;;14.27;7.68;;;14.50;99.90;;;;;;5094305;28;20090;-76
2023/08/16 04:22:13;;;;;;;15.30;9.30;;;14.50;99.90;;;;;;5095650;28;20032;-76
2023/08/16 04:24:38;;;;;;;16.63;8.90;;;14.50;99.90;;;;;;5095843;28;20051;-76
2023/08/16 04:27:05;;;;;;;13.65;7.95;;;14.50;99.90;;;;;;5083802;28;20048;-76
2023/08/16 04:29:30;;;;;;;14.90;8.88;;;14.50;99.90;;;;;;5115603;28;20046;-76
2023/08/16 04:31:56;;;;;;;13.13;8.02;;;14.50;99.90;;;;;;5115149;28;20126;-77
2023/08/16 04:34:22;;;;;;;14.48;7.72;;;14.50;99.90;;;;;;5107653;28;20493;-77
2023/08/16 04:36:48;;;;;;;14.10;8.30;;;14.50;99.90;;;;;;5095723;28;20461;-77
2023/08/16 04:39:13;;;;;;;11.38;8.63;;;14.70;99.90;;;;;;5094103;28;20072;-76
2023/08/16 04:41:39;;;;;;;9.80;6.88;;;14.50;99.90;;;;;;5095059;28;20109;-77
2023/08/16 04:44:05;;;;;;;13.05;7.85;;;14.50;99.90;;;;;;5093993;28;20074;-76
2023/08/16 04:46:31;;;;;;;11.77;7.07;;;14.50;99.90;;;;;;5098167;28;20094;-76
2023/08/16 04:48:56;;;;;;;12.60;7.60;;;14.50;99.90;;;;;;5114412;28;20039;-76
2023/08/16 04:51:22;;;;;;;14.00;9.00;;;14.50;99.90;;;;;;5106664;28;20123;-76
2023/08/16 04:53:48;;;;;;;13.80;7.47;;;14.60;99.90;;;;;;5096185;28;20036;-76
2023/08/16 04:56:13;;;;;;;16.77;9.30;;;14.60;99.90;;;;;;5094283;28;20040;-76
2023/08/16 04:58:39;;;;;;;14.48;7.72;;;14.60;99.90;;;;;;5094507;28;20048;-77
2023/08/16 05:01:05;;;;;;;13.57;8.05;;;14.60;99.90;;;;;;5095513;28;20032;-76
2023/08/16 05:03:31;;;;;;;14.98;8.30;;;14.60;99.90;;;;;;5077332;28;20398;-77
2023/08/16 05:06:02;;;;;;;11.30;8.38;;;14.60;99.90;;;;;;5095448;28;20067;-77
2023/08/16 05:08:28;;;;;;;12.35;7.35;;;14.70;99.90;;;;;;5094186;28;20043;-75
2023/08/16 05:10:55;;;;;;;12.80;7.82;;;14.70;99.90;;;;;;5096835;28;20439;-76
2023/08/16 05:13:21;;;;;;;12.77;7.63;;;14.70;99.90;;;;;;5096784;28;20044;-76
2023/08/16 05:15:46;;;;;;;13.02;8.93;;;14.70;99.90;;;;;;5094230;28;20390;-76
2023/08/16 05:18:12;;;;;;;11.43;7.55;;;14.80;99.90;;;;;;5077020;28;20436;-76
2023/08/16 05:20:38;;;;;;;16.98;8.43;;;14.80;99.90;;;;;;5096188;28;20048;-75
2023/08/16 05:23:04;;;;;;;15.82;8.90;;;14.90;99.90;;;;;;5115577;28;20096;-76
2023/08/16 05:25:29;;;;;;;15.80;8.93;;;15.00;99.90;;;;;;5115478;28;20048;-76
2023/08/16 05:27:58;;;;;;;11.18;7.72;;;15.10;99.90;;;;;;5102853;28;20052;-76
2023/08/16 05:30:25;;;;;;;16.73;8.88;;;15.10;99.90;;;;;;5095035;28;20490;-76
2023/08/16 05:32:54;;;;;;;17.58;7.97;;;15.10;99.90;;;;;;5095137;28;20047;-75
2023/08/16 05:35:19;;;;;;;15.85;8.13;;;15.20;99.90;;;;;;5093473;28;20078;-75
2023/08/16 05:37:45;;;;;;;12.32;8.85;;;15.20;99.90;;;;;;5094545;28;20082;-76
2023/08/16 05:40:11;;;;;;;14.35;9.07;;;15.30;99.90;;;;;;5095485;28;20044;-76
2023/08/16 05:42:38;;;;;;;15.38;9.05;;;15.40;99.90;;;;;;5077109;28;20097;-76
2023/08/16 05:45:04;;;;;;;12.77;8.07;;;15.60;99.90;;;;;;5093897;28;20105;-76
2023/08/16 05:47:30;;;;;;;14.23;8.07;;;15.70;99.90;;;;;;5094968;28;20547;-75
2023/08/16 05:49:56;;;;;;;12.75;7.65;;;15.80;99.90;;;;;;5094761;28;20035;-76
2023/08/16 05:52:22;;;;;;;20.55;7.88;;;15.90;99.90;;;;;;5094646;28;20044;-76
2023/08/16 05:54:48;;;;;;;13.65;7.80;;;16.10;99.90;;;;;;5094661;28;20448;-75
2023/08/16 05:57:13;;;;;;;12.18;7.00;;;16.30;99.90;;;;;;5094922;28;20036;-76
2023/08/16 05:59:40;;;;;;;10.15;7.45;;;16.50;99.90;;;;;;5094152;28;20082;-76
2023/08/16 06:02:09;;;;;;;8.82;6.63;;;16.50;99.90;;;;;;5092615;28;20069;-76
2023/08/16 06:04:35;;;;;;;10.18;6.97;;;16.60;99.90;;;;;;5093896;28;20047;-76
2023/08/16 06:07:02;;;;;;;14.23;6.50;;;16.70;99.90;;;;;;5092807;28;20051;-76
2023/08/16 06:09:28;;;;;;;8.20;5.38;;;16.80;99.90;;;;;;5092507;28;20115;-76
2023/08/16 06:11:53;;;;;;;12.40;5.75;;;17.00;99.90;;;;;;5093275;28;20517;-77
2023/08/16 06:14:19;;;;;;;12.38;6.00;;;16.90;99.90;;;;;;5093503;28;20040;-77
2023/08/16 06:16:45;;;;;;;11.50;5.40;;;16.90;99.90;;;;;;5092829;28;20129;-77
2023/08/16 06:19:13;;;;;;;78.60;18.80;;;17.10;99.90;;;;;;5093514;28;20036;-77
2023/08/16 06:21:39;;;;;;;46.33;10.70;;;17.20;99.90;;;;;;5107977;28;20050;-77
2023/08/16 06:24:05;;;;;;;36.05;8.32;;;17.30;99.90;;;;;;5114410;28;20040;-76
2023/08/16 06:26:31;;;;;;;69.22;16.13;;;17.40;99.90;;;;;;5110193;28;20566;-76
2023/08/16 06:28:58;;;;;;;37.13;9.70;;;17.50;99.90;;;;;;5093695;28;20082;-76
2023/08/16 06:31:24;;;;;;;47.70;11.27;;;17.60;99.90;;;;;;5093899;28;20040;-76
2023/08/16 06:33:49;;;;;;;9.50;4.00;;;17.60;99.90;;;;;;5093682;28;20516;-76
2023/08/16 06:36:15;;;;;;;8.70;4.00;;;17.80;99.90;;;;;;5093958;28;20109;-76
2023/08/16 06:38:41;;;;;;;7.70;3.05;;;17.90;99.90;;;;;;5093930;28;20036;-76
2023/08/16 06:41:06;;;;;;;10.57;3.60;;;18.00;99.90;;;;;;5093179;28;20044;-76
2023/08/16 06:43:32;;;;;;;6.13;3.30;;;18.20;99.90;;;;;;5091943;28;20036;-76
2023/08/16 06:45:59;;;;;;;8.38;3.50;;;18.40;99.90;;;;;;5092454;28;20066;-76
2023/08/16 06:48:25;;;;;;;7.35;3.30;;;18.60;99.90;;;;;;5093041;28;20079;-76
2023/08/16 06:50:51;;;;;;;6.15;3.63;;;18.60;99.90;;;;;;5113108;28;20075;-77
2023/08/16 06:53:16;;;;;;;7.45;4.07;;;18.60;99.90;;;;;;5113874;28;20077;-76
2023/08/16 06:55:42;;;;;;;8.90;3.13;;;18.70;99.90;;;;;;5113848;28;20044;-76
2023/08/16 06:58:10;;;;;;;6.88;3.00;;;18.60;99.90;;;;;;5093041;28;20044;-77
2023/08/16 07:00:36;;;;;;;5.60;2.30;;;18.60;99.90;;;;;;5092123;28;20040;-76
2023/08/16 07:03:02;;;;;;;7.65;3.10;;;18.70;99.90;;;;;;5093506;28;20047;-77
2023/08/16 07:05:28;;;;;;;6.38;2.60;;;18.90;99.90;;;;;;5092052;28;20535;-76
2023/08/16 07:07:55;;;;;;;7.07;2.70;;;19.00;99.90;;;;;;5075238;28;20075;-76
2023/08/16 07:10:21;;;;;;;6.50;2.53;;;19.10;99.90;;;;;;5092074;28;20040;-76
2023/08/16 07:12:47;;;;;;;4.10;2.30;;;19.30;99.90;;;;;;5093322;28;20048;-77
2023/08/16 07:15:13;;;;;;;6.97;2.08;;;19.20;99.90;;;;;;5093142;28;20036;-76
2023/08/16 07:17:39;;;;;;;6.20;2.30;;;19.20;99.90;;;;;;5091986;28;20445;-76
2023/08/16 07:20:08;;;;;;;4.75;2.17;;;19.10;99.90;;;;;;5092985;28;20044;-75
2023/08/16 07:22:37;;;;;;;6.45;2.20;;;19.00;99.90;;;;;;5093266;28;20036;-76
2023/08/16 07:25:05;;;;;;;6.05;2.20;;;19.00;99.90;;;;;;5097022;28;20501;-76
2023/08/16 07:27:30;;;;;;;6.70;2.05;;;19.10;99.90;;;;;;5096571;28;20441;-76
2023/08/16 07:29:56;;;;;;;5.60;2.20;;;19.10;99.90;;;;;;5095432;28;20056;-77
2023/08/16 07:32:25;;;;;;;6.78;2.03;;;19.10;99.90;;;;;;5096786;28;20498;-77
2023/08/16 07:34:51;;;;;;;7.60;2.20;;;19.20;99.90;;;;;;5078948;28;20048;-77
2023/08/16 07:37:17;;;;;;;4.05;1.65;;;19.40;99.90;;;;;;5097192;28;20044;-77
2023/08/16 07:39:44;;;;;;;5.75;1.88;;;19.50;99.90;;;;;;5097325;28;20486;-77
2023/08/16 07:42:10;;;;;;;5.72;1.73;;;19.50;99.90;;;;;;5096842;28;20039;-76
2023/08/16 07:44:36;;;;;;;4.63;1.80;;;19.40;99.90;;;;;;5079043;28;20059;-76
2023/08/16 07:47:02;;;;;;;5.47;1.80;;;19.50;99.90;;;;;;5110452;28;20040;-77
2023/08/16 07:49:29;;;;;;;6.20;1.70;;;19.60;99.90;;;;;;5097141;28;20043;-76
2023/08/16 07:51:56;;;;;;;5.30;1.90;;;19.60;99.90;;;;;;5096133;28;20036;-76
2023/08/16 07:54:22;;;;;;;4.25;1.95;;;19.60;99.90;;;;;;5079910;28;20040;-77
2023/08/16 07:56:48;;;;;;;6.53;2.17;;;19.70;99.90;;;;;;5098545;28;20043;-76
2023/08/16 07:59:14;;;;;;;11.85;2.78;;;19.90;99.90;;;;;;5080203;28;20051;-77
2023/08/16 08:01:40;;;;;;;6.22;2.00;;;20.00;99.90;;;;;;5096920;28;20044;-76
2023/08/16 08:04:06;;;;;;;9.18;2.33;;;20.10;99.90;;;;;;5097970;28;20115;-76
2023/08/16 08:06:32;;;;;;;7.20;1.80;;;20.20;99.90;;;;;;5096731;28;20111;-75
2023/08/16 08:08:58;;;;;;;4.32;2.00;;;20.30;99.90;;;;;;5096559;28;20100;-76
2023/08/16 08:11:24;;;;;;;4.50;1.65;;;20.40;99.90;;;;;;5100576;28;20040;-76
2023/08/16 08:13:49;;;;;;;4.68;2.25;;;20.30;99.90;;;;;;5100894;28;20040;-76
2023/08/16 08:16:15;;;;;;;4.53;2.13;;;20.40;99.90;;;;;;5099814;28;20047;-75
2023/08/16 08:18:41;;;;;;;4.57;1.88;;;20.40;99.90;;;;;;5098899;28;20055;-76
2023/08/16 08:21:06;;;;;;;5.00;1.95;;;20.50;99.90;;;;;;5110297;28;20043;-75
2023/08/16 08:23:32;;;;;;;7.57;2.15;;;20.60;99.90;;;;;;5119294;28;20056;-76
2023/08/16 08:25:58;;;;;;;5.25;1.80;;;20.60;99.90;;;;;;5100398;28;20497;-75
2023/08/16 08:28:23;;;;;;;6.18;1.85;;;20.70;99.90;;;;;;5097264;28;20067;-76
2023/08/16 08:30:49;;;;;;;3.97;1.70;;;20.80;99.90;;;;;;5095520;28;20486;-76
2023/08/16 08:33:15;;;;;;;3.92;1.63;;;20.90;99.90;;;;;;5096709;28;20083;-77
2023/08/16 08:35:40;;;;;;;9.55;2.55;;;20.90;99.90;;;;;;5078197;28;20052;-77
2023/08/16 08:38:06;;;;;;;4.82;1.60;;;21.00;99.90;;;;;;5096242;28;20040;-77
2023/08/16 08:40:32;;;;;;;10.05;2.00;;;21.20;99.90;;;;;;5095090;28;20044;-78
2023/08/16 08:43:03;;;;;;;4.45;1.60;;;21.30;99.90;;;;;;5094548;28;20059;-77
2023/08/16 08:45:30;;;;;;;3.95;1.42;;;21.40;99.90;;;;;;5077725;28;20052;-76
2023/08/16 08:47:59;;;;;;;3.58;1.77;;;21.40;99.90;;;;;;5096233;28;20603;-77
2023/08/16 08:50:25;;;;;;;6.60;1.65;;;21.30;99.90;;;;;;5095866;28;20513;-76
2023/08/16 08:52:53;;;;;;;6.65;1.80;;;21.40;99.90;;;;;;5095623;28;20094;-76
2023/08/16 08:55:20;;;;;;;5.90;1.60;;;21.30;99.90;;;;;;5115943;28;20051;-75
2023/08/16 08:57:50;;;;;;;6.60;1.83;;;21.20;99.90;;;;;;5107440;28;20560;-77
2023/08/16 09:00:27;;;;;;;8.40;1.92;;;21.20;99.90;;;;;;5096395;28;20486;-78
2023/08/16 09:02:56;;;;;;;3.95;1.83;;;21.40;99.90;;;;;;5095991;28;20032;-77
2023/08/16 09:05:22;;;;;;;3.85;1.88;;;21.60;99.90;;;;;;5095468;28;20079;-76
2023/08/16 09:07:48;;;;;;;4.38;1.63;;;21.80;99.90;;;;;;5095399;28;20402;-76
2023/08/16 09:10:16;;;;;;;7.65;2.10;;;22.00;99.90;;;;;;5094134;28;20547;-76
2023/08/16 09:12:42;;;;;;;5.97;1.88;;;21.90;99.90;;;;;;5095275;28;20040;-76
2023/08/16 09:15:09;;;;;;;4.00;2.10;;;22.00;99.90;;;;;;5094015;28;20051;-76
2023/08/16 09:17:35;;;;;;;5.57;2.25;;;22.00;99.90;;;;;;5095097;28;20066;-76
2023/08/16 09:20:05;;;;;;;5.50;2.10;;;22.00;99.90;;;;;;5094913;28;20410;-75
2023/08/16 09:22:31;;;;;;;7.68;2.13;;;22.00;99.90;;;;;;5094901;28;20425;-77
2023/08/16 09:24:58;;;;;;;7.68;2.42;;;21.90;99.90;;;;;;5093657;28;20078;-76
2023/08/16 09:27:28;;;;;;;5.23;2.43;;;22.00;99.90;;;;;;5094906;28;20055;-77
2023/08/16 09:29:54;;;;;;;5.78;2.33;;;22.20;99.90;;;;;;5093744;28;20071;-76
2023/08/16 09:32:21;;;;;;;3.45;1.75;;;22.30;99.90;;;;;;5094024;28;20040;-76
2023/08/16 09:34:48;;;;;;;5.00;2.17;;;22.40;99.90;;;;;;5095140;28;20517;-77
2023/08/16 09:37:15;;;;;;;4.80;2.33;;;22.60;99.90;;;;;;5095684;28;20790;-77
2023/08/16 09:39:40;;;;;;;5.20;2.70;;;22.40;99.90;;;;;;5095027;28;20032;-76
2023/08/16 09:42:10;;;;;;;4.80;2.20;;;22.10;99.90;;;;;;5094825;28;20416;-75
2023/08/16 09:44:36;;;;;;;4.50;2.38;;;22.00;99.90;;;;;;5093002;28;20059;-76
2023/08/16 09:47:15;;;;;;;6.68;2.75;;;22.00;99.90;;;;;;5094604;28;20064;-75
2023/08/16 09:49:43;;;;;;;6.65;2.65;;;22.00;99.90;;;;;;5093591;28;20572;-77
2023/08/16 09:52:12;;;;;;;;;;;22.20;99.90;;;;;;5094534;28;20048;-76
2023/08/16 09:54:38;;;;;;;7.60;2.35;;;22.40;99.90;;;;;;5093260;28;19920;-76
2023/08/16 09:57:04;;;;;;;5.13;2.70;;;22.50;99.90;;;;;;5094762;28;20048;-76
2023/08/16 09:59:31;;;;;;;7.93;2.55;;;22.80;99.90;;;;;;5094497;28;20043;-75
2023/08/16 10:02:00;;;;;;;4.47;2.23;;;22.90;99.90;;;;;;5094743;28;20036;-76
2023/08/16 10:04:27;;;;;;;6.47;2.17;;;23.00;99.90;;;;;;5094148;28;20398;-76
2023/08/16 10:06:55;;;;;;;7.05;2.42;;;23.10;99.90;;;;;;5094640;28;20032;-77
2023/08/16 10:09:22;;;;;;;7.00;2.20;;;23.10;99.90;;;;;;5094439;28;20036;-76
2023/08/16 10:11:49;;;;;;;6.55;2.88;;;23.10;99.90;;;;;;5092976;28;20092;-76
2023/08/16 10:14:15;;;;;;;5.15;2.58;;;23.20;99.90;;;;;;5094709;28;20032;-75
2023/08/16 10:16:46;;;;;;;6.50;2.22;;;23.00;99.90;;;;;;5094034;28;20082;-76
2023/08/16 10:19:15;;;;;;;5.70;2.00;;;23.00;99.90;;;;;;5094158;28;20439;-77
2023/08/16 10:21:46;;;;;;;5.05;2.00;;;23.00;99.90;;;;;;5092949;28;20044;-76
2023/08/16 10:24:15;;;;;;;6.55;1.90;;;22.90;99.90;;;;;;5093528;28;20474;-76
2023/08/16 10:26:46;;;;;;;6.00;2.67;;;23.00;99.90;;;;;;5092410;28;20056;-76
2023/08/16 10:29:14;;;;;;;4.13;2.00;;;22.90;99.90;;;;;;5094286;28;20096;-76
2023/08/16 10:31:41;;;;;;;;;;;23.10;99.90;;;;;;5093267;28;20104;-76
2023/08/16 10:34:10;;;;;;;6.53;2.03;;;23.30;99.90;;;;;;5092772;28;19927;-75
2023/08/16 10:36:36;;;;;;;4.50;1.80;;;23.10;99.90;;;;;;5094156;28;20035;-75
2023/08/16 10:39:03;;;;;;;4.47;2.25;;;22.80;99.90;;;;;;5093664;28;20044;-76
2023/08/16 10:41:41;;;;;;;5.55;1.98;;;22.70;99.90;;;;;;5092857;28;20512;-77
2023/08/16 10:44:07;;;;;;;4.13;1.98;;;22.60;99.90;;;;;;5076034;28;20048;-76
2023/08/16 10:46:37;;;;;;;5.13;2.65;;;22.70;99.90;;;;;;5094408;28;20047;-77
2023/08/16 10:49:06;;;;;;;3.75;2.17;;;22.90;99.90;;;;;;5093123;28;20040;-76
2023/08/16 10:51:43;;;;;;;4.55;2.17;;;23.10;99.90;;;;;;5095189;28;20121;-77
2023/08/16 10:54:08;;;;;;;6.38;2.05;;;23.20;99.90;;;;;;5093590;28;20126;-78
2023/08/16 10:56:44;;;;;;;5.70;2.22;;;23.50;99.90;;;;;;5093965;28;20079;-77
2023/08/16 10:59:11;;;;;;;6.88;2.00;;;23.60;99.90;;;;;;5095022;28;20063;-75
2023/08/16 11:01:50;;;;;;;8.10;2.72;;;23.70;99.60;;;;;;5107525;28;20043;-76
2023/08/16 11:04:16;;;;;;;5.50;2.10;;;23.90;99.90;;;;;;5112212;28;20050;-78
2023/08/16 11:06:43;;;;;;;8.77;2.80;;;24.20;99.90;;;;;;5094961;28;20048;-76
2023/08/16 11:09:09;;;;;;;3.70;2.33;;;24.10;99.80;;;;;;5093672;28;20136;-77
2023/08/16 11:11:36;;;;;;;5.68;2.65;;;24.20;99.40;;;;;;5094856;28;20079;-77
2023/08/16 11:14:02;;;;;;;7.72;2.38;;;24.40;99.10;;;;;;5093199;28;20076;-76
2023/08/16 11:16:29;;;;;;;6.95;2.45;;;24.60;99.10;;;;;;5095044;28;20048;-77
2023/08/16 11:18:59;;;;;;;6.47;2.78;;;24.60;97.00;;;;;;5094528;28;20092;-76
2023/08/16 11:21:25;;;;;;;7.03;3.03;;;24.30;97.70;;;;;;5094244;28;20040;-76
2023/08/16 11:23:54;;;;;;;5.57;3.20;;;23.90;98.10;;;;;;5094548;28;20394;-76
2023/08/16 11:26:20;;;;;;;7.00;3.55;;;23.60;98.60;;;;;;5093116;28;20406;-77
2023/08/16 11:28:46;;;;;;;6.63;3.00;;;23.40;99.70;;;;;;5093548;28;20044;-76
2023/08/16 11:31:12;;;;;;;7.63;2.83;;;23.70;99.90;;;;;;5095150;28;20058;-77
2023/08/16 11:33:43;;;;;;;6.65;2.90;;;24.10;99.90;;;;;;5093649;28;20121;-77
2023/08/16 11:36:10;;;;;;;;;;;24.40;99.30;;;;;;5094839;28;20036;-78
2023/08/16 11:38:36;;;;;;;7.07;3.00;;;24.40;97.20;;;;;;5093749;28;19927;-77
2023/08/16 11:41:02;;;;;;;6.85;3.35;;;24.30;97.00;;;;;;5094072;28;20041;-76
2023/08/16 11:43:32;;;;;;;6.30;3.03;;;24.20;98.90;;;;;;5093669;28;20044;-76
2023/08/16 11:45:59;;;;;;;7.85;3.20;;;24.50;99.00;;;;;;5094522;28;20050;-77
2023/08/16 11:48:25;;;;;;;10.23;3.30;;;24.90;99.30;;;;;;5091759;28;20040;-77
2023/08/16 11:50:52;;;;;;;7.45;3.03;;;25.10;98.40;;;;;;5092296;28;20055;-76
2023/08/16 11:53:18;;;;;;;8.37;3.57;;;24.70;98.00;;;;;;5092384;28;20406;-77
2023/08/16 11:56:06;;;;;;;5.57;2.88;;;24.20;97.80;;;;;;5093501;28;20040;-76
2023/08/16 11:58:46;;;;;;;11.27;3.95;;;23.80;98.20;;;;;;5094043;28;20486;-76
2023/08/16 12:01:21;;;;;;;9.02;2.53;;;23.40;98.00;;;;;;5091840;28;20047;-76
2023/08/16 12:03:47;;;;;;;5.70;2.30;;;23.30;99.10;;;;;;5092009;28;20371;-77
2023/08/16 12:06:13;;;;;;;4.47;2.17;;;23.50;99.70;;;;;;5093827;28;20043;-77
2023/08/16 12:08:48;;;;;;;5.10;2.40;;;24.10;97.10;;;;;;5096966;28;20193;-78
2023/08/16 12:11:24;;;;;;;4.63;2.75;;;24.20;97.60;;;;;;5099226;28;20139;-77
2023/08/16 12:13:50;;;;;;;8.93;2.47;;;24.20;96.80;;;;;;5100608;28;20059;-76
2023/08/16 12:16:16;;;;;;;6.97;2.85;;;24.50;97.90;;;;;;5101377;28;20048;-77
2023/08/16 12:18:41;;;;;;;7.40;2.85;;;24.70;97.30;;;;;;5109270;28;20043;-77
2023/08/16 12:21:07;;;;;;;9.25;3.45;;;25.00;97.00;;;;;;5100757;28;20050;-77
2023/08/16 12:23:34;;;;;;;5.95;3.13;;;25.10;96.10;;;;;;5098766;28;20118;-77
2023/08/16 12:26:00;;;;;;;7.67;2.80;;;25.00;95.70;;;;;;5097793;28;20106;-77
2023/08/16 12:28:25;;;;;;;7.60;2.88;;;25.10;96.70;;;;;;5098773;28;20075;-76
2023/08/16 12:30:51;;;;;;;5.93;2.38;;;25.40;95.70;;;;;;5100226;28;20119;-78
2023/08/16 12:33:17;;;;;;;5.57;2.53;;;25.40;95.70;;;;;;5099347;28;20539;-77
2023/08/16 12:35:42;;;;;;;6.22;2.58;;;25.50;95.40;;;;;;5097699;28;20119;-75
2023/08/16 12:38:08;;;;;;;5.30;2.67;;;25.40;94.40;;;;;;5096539;28;20394;-75
2023/08/16 12:40:34;;;;;;;4.85;2.22;;;25.40;95.30;;;;;;5099008;28;20044;-77
2023/08/16 12:43:02;;;;;;;4.15;2.50;;;25.50;94.20;;;;;;5098580;28;20054;-77